Terminal Aerodrome Forecast
Issued by NWS Charleston, WV

Current Version | Previous Version | Text Only | Print | Product List | Glossary Off
Versions: 1 2 3 4 5 6 7 8 9 10 11 12 13 14 15 16 17 18 19 20 21 22 23 24 25 26

182
FTUS41 KRLX 112320
TAFEKN
TAF
KEKN 112320Z 1200/1224 28004KT P6SM BKN050
     FM120400 VRB03KT P6SM SCT250
     FM121100 00000KT P6SM BKN250
     FM121200 00000KT P6SM BKN050
     FM121800 25006KT 3SM -SN OVC035
     FM122100 27008KT 2SM -SN OVC015=

USA.gov is the U.S. government's official web portal to all federal, state and local government web resources and services.